sensor_id;sensor_type;location;lat;lon;timestamp;P1;durP1;ratioP1;P2;durP2;ratioP2
7583;SDS011;3833;41.764;26.204;2023-02-03T00:01:49;3.50;;;3.20;;
7583;SDS011;3833;41.764;26.204;2023-02-03T00:04:17;3.07;;;2.60;;
7583;SDS011;3833;41.764;26.204;2023-02-03T00:06:44;3.17;;;2.83;;
7583;SDS011;3833;41.764;26.204;2023-02-03T00:09:11;3.07;;;2.77;;
7583;SDS011;3833;41.764;26.204;2023-02-03T00:11:39;3.30;;;3.00;;
7583;SDS011;3833;41.764;26.204;2023-02-03T00:14:06;3.10;;;2.87;;
7583;SDS011;3833;41.764;26.204;2023-02-03T00:16:33;3.03;;;2.83;;
7583;SDS011;3833;41.764;26.204;2023-02-03T00:19:00;3.10;;;2.90;;
7583;SDS011;3833;41.764;26.204;2023-02-03T00:21:28;3.63;;;3.33;;
7583;SDS011;3833;41.764;26.204;2023-02-03T00:23:55;3.23;;;3.03;;
7583;SDS011;3833;41.764;26.204;2023-02-03T00:26:22;3.07;;;2.80;;
7583;SDS011;3833;41.764;26.204;2023-02-03T00:28:50;3.03;;;2.83;;
7583;SDS011;3833;41.764;26.204;2023-02-03T00:31:17;3.23;;;3.03;;
7583;SDS011;3833;41.764;26.204;2023-02-03T00:33:45;3.03;;;2.83;;
7583;SDS011;3833;41.764;26.204;2023-02-03T00:36:12;3.30;;;2.90;;
7583;SDS011;3833;41.764;26.204;2023-02-03T00:38:40;2.90;;;2.70;;
7583;SDS011;3833;41.764;26.204;2023-02-03T00:41:07;3.00;;;2.80;;
7583;SDS011;3833;41.764;26.204;2023-02-03T00:43:34;3.73;;;3.43;;
7583;SDS011;3833;41.764;26.204;2023-02-03T00:46:01;3.80;;;2.67;;
7583;SDS011;3833;41.764;26.204;2023-02-03T00:48:28;3.70;;;3.40;;
7583;SDS011;3833;41.764;26.204;2023-02-03T00:50:55;3.30;;;3.10;;
7583;SDS011;3833;41.764;26.204;2023-02-03T00:53:21;3.03;;;2.83;;
7583;SDS011;3833;41.764;26.204;2023-02-03T00:55:50;3.33;;;3.13;;
7583;SDS011;3833;41.764;26.204;2023-02-03T00:58:16;3.60;;;2.97;;
7583;SDS011;3833;41.764;26.204;2023-02-03T01:00:43;3.73;;;3.43;;
7583;SDS011;3833;41.764;26.204;2023-02-03T01:03:10;3.63;;;3.33;;
7583;SDS011;3833;41.764;26.204;2023-02-03T01:05:37;2.73;;;2.50;;
7583;SDS011;3833;41.764;26.204;2023-02-03T01:08:04;4.37;;;2.80;;
7583;SDS011;3833;41.764;26.204;2023-02-03T01:10:31;3.40;;;3.20;;
7583;SDS011;3833;41.764;26.204;2023-02-03T01:12:59;4.20;;;3.90;;
7583;SDS011;3833;41.764;26.204;2023-02-03T01:15:26;4.27;;;4.07;;
7583;SDS011;3833;41.764;26.204;2023-02-03T01:17:52;6.70;;;6.37;;
7583;SDS011;3833;41.764;26.204;2023-02-03T01:20:19;5.73;;;5.43;;
7583;SDS011;3833;41.764;26.204;2023-02-03T01:22:46;5.73;;;5.43;;
7583;SDS011;3833;41.764;26.204;2023-02-03T01:25:13;6.37;;;5.90;;
7583;SDS011;3833;41.764;26.204;2023-02-03T01:27:40;4.63;;;4.23;;
7583;SDS011;3833;41.764;26.204;2023-02-03T01:30:09;6.03;;;5.73;;
7583;SDS011;3833;41.764;26.204;2023-02-03T01:32:37;12.53;;;12.03;;
7583;SDS011;3833;41.764;26.204;2023-02-03T01:35:04;12.87;;;12.30;;
7583;SDS011;3833;41.764;26.204;2023-02-03T01:37:31;11.87;;;11.37;;
7583;SDS011;3833;41.764;26.204;2023-02-03T01:39:57;11.90;;;11.30;;
7583;SDS011;3833;41.764;26.204;2023-02-03T01:42:24;15.83;;;15.13;;
7583;SDS011;3833;41.764;26.204;2023-02-03T01:44:51;19.57;;;18.77;;
7583;SDS011;3833;41.764;26.204;2023-02-03T01:47:25;16.93;;;16.17;;
7583;SDS011;3833;41.764;26.204;2023-02-03T01:49:58;16.70;;;16.00;;
7583;SDS011;3833;41.764;26.204;2023-02-03T01:52:30;16.23;;;15.57;;
7583;SDS011;3833;41.764;26.204;2023-02-03T01:54:58;13.60;;;13.00;;
7583;SDS011;3833;41.764;26.204;2023-02-03T01:57:29;14.40;;;13.70;;
7583;SDS011;3833;41.764;26.204;2023-02-03T01:59:59;13.23;;;12.53;;
7583;SDS011;3833;41.764;26.204;2023-02-03T02:02:29;12.10;;;11.50;;
7583;SDS011;3833;41.764;26.204;2023-02-03T02:04:59;11.47;;;10.87;;
7583;SDS011;3833;41.764;26.204;2023-02-03T02:07:30;7.47;;;7.07;;
7583;SDS011;3833;41.764;26.204;2023-02-03T02:09:58;9.70;;;9.20;;
7583;SDS011;3833;41.764;26.204;2023-02-03T02:12:25;9.97;;;9.47;;
7583;SDS011;3833;41.764;26.204;2023-02-03T02:14:52;8.10;;;7.70;;
7583;SDS011;3833;41.764;26.204;2023-02-03T02:17:25;8.87;;;8.43;;
7583;SDS011;3833;41.764;26.204;2023-02-03T02:20:16;8.50;;;8.00;;
7583;SDS011;3833;41.764;26.204;2023-02-03T02:26:16;7.97;;;7.43;;
7583;SDS011;3833;41.764;26.204;2023-02-03T02:29:08;6.33;;;5.83;;
7583;SDS011;3833;41.764;26.204;2023-02-03T02:31:52;6.03;;;5.53;;
7583;SDS011;3833;41.764;26.204;2023-02-03T02:34:35;5.87;;;5.47;;
7583;SDS011;3833;41.764;26.204;2023-02-03T02:37:12;7.80;;;7.30;;
7583;SDS011;3833;41.764;26.204;2023-02-03T02:39:51;8.50;;;8.10;;
7583;SDS011;3833;41.764;26.204;2023-02-03T02:42:25;8.93;;;8.40;;
7583;SDS011;3833;41.764;26.204;2023-02-03T02:45:03;8.77;;;8.27;;
7583;SDS011;3833;41.764;26.204;2023-02-03T02:47:35;7.83;;;7.37;;
7583;SDS011;3833;41.764;26.204;2023-02-03T02:50:04;7.20;;;6.70;;
7583;SDS011;3833;41.764;26.204;2023-02-03T02:52:35;6.90;;;6.50;;
7583;SDS011;3833;41.764;26.204;2023-02-03T02:55:07;6.00;;;5.60;;
7583;SDS011;3833;41.764;26.204;2023-02-03T02:57:37;6.20;;;5.80;;
7583;SDS011;3833;41.764;26.204;2023-02-03T03:00:05;6.60;;;5.43;;
7583;SDS011;3833;41.764;26.204;2023-02-03T03:02:35;5.43;;;5.03;;
7583;SDS011;3833;41.764;26.204;2023-02-03T03:05:02;5.13;;;4.73;;
7583;SDS011;3833;41.764;26.204;2023-02-03T03:07:31;4.87;;;4.57;;
7583;SDS011;3833;41.764;26.204;2023-02-03T03:10:03;4.80;;;4.40;;
7583;SDS011;3833;41.764;26.204;2023-02-03T03:12:33;4.97;;;4.57;;
7583;SDS011;3833;41.764;26.204;2023-02-03T03:15:03;4.93;;;4.43;;
7583;SDS011;3833;41.764;26.204;2023-02-03T03:17:36;4.67;;;4.30;;
7583;SDS011;3833;41.764;26.204;2023-02-03T03:20:08;4.40;;;4.10;;
7583;SDS011;3833;41.764;26.204;2023-02-03T03:22:38;4.20;;;3.83;;
7583;SDS011;3833;41.764;26.204;2023-02-03T03:25:11;4.53;;;4.13;;
7583;SDS011;3833;41.764;26.204;2023-02-03T03:27:43;4.50;;;4.10;;
7583;SDS011;3833;41.764;26.204;2023-02-03T03:30:15;4.30;;;4.00;;
7583;SDS011;3833;41.764;26.204;2023-02-03T03:32:49;4.87;;;4.00;;
7583;SDS011;3833;41.764;26.204;2023-02-03T03:35:16;4.20;;;3.90;;
7583;SDS011;3833;41.764;26.204;2023-02-03T03:37:44;4.33;;;3.53;;
7583;SDS011;3833;41.764;26.204;2023-02-03T03:40:17;4.50;;;4.10;;
7583;SDS011;3833;41.764;26.204;2023-02-03T03:42:49;3.90;;;3.60;;
7583;SDS011;3833;41.764;26.204;2023-02-03T03:45:21;5.83;;;4.47;;
7583;SDS011;3833;41.764;26.204;2023-02-03T03:47:55;5.07;;;4.20;;
7583;SDS011;3833;41.764;26.204;2023-02-03T03:50:27;5.07;;;4.07;;
7583;SDS011;3833;41.764;26.204;2023-02-03T03:52:56;4.90;;;4.50;;
7583;SDS011;3833;41.764;26.204;2023-02-03T03:55:27;4.20;;;3.83;;
7583;SDS011;3833;41.764;26.204;2023-02-03T03:57:58;4.47;;;4.17;;
7583;SDS011;3833;41.764;26.204;2023-02-03T04:00:29;4.70;;;4.30;;
7583;SDS011;3833;41.764;26.204;2023-02-03T04:03:00;5.30;;;4.90;;
7583;SDS011;3833;41.764;26.204;2023-02-03T04:05:39;5.03;;;4.63;;
7583;SDS011;3833;41.764;26.204;2023-02-03T04:08:06;5.00;;;4.47;;
7583;SDS011;3833;41.764;26.204;2023-02-03T04:10:34;4.40;;;4.10;;
7583;SDS011;3833;41.764;26.204;2023-02-03T04:13:02;4.73;;;4.33;;
7583;SDS011;3833;41.764;26.204;2023-02-03T04:15:29;4.47;;;4.17;;
7583;SDS011;3833;41.764;26.204;2023-02-03T04:17:57;5.00;;;4.43;;
7583;SDS011;3833;41.764;26.204;2023-02-03T04:20:26;5.73;;;5.23;;
7583;SDS011;3833;41.764;26.204;2023-02-03T04:22:54;5.53;;;5.13;;
7583;SDS011;3833;41.764;26.204;2023-02-03T04:25:21;5.73;;;5.33;;
7583;SDS011;3833;41.764;26.204;2023-02-03T04:27:48;6.23;;;5.73;;
7583;SDS011;3833;41.764;26.204;2023-02-03T04:30:15;6.63;;;5.30;;
7583;SDS011;3833;41.764;26.204;2023-02-03T04:32:43;5.03;;;4.70;;
7583;SDS011;3833;41.764;26.204;2023-02-03T04:35:10;5.13;;;4.73;;
7583;SDS011;3833;41.764;26.204;2023-02-03T04:37:38;4.73;;;4.33;;
7583;SDS011;3833;41.764;26.204;2023-02-03T04:40:06;5.03;;;4.63;;
7583;SDS011;3833;41.764;26.204;2023-02-03T04:42:35;5.40;;;5.00;;
7583;SDS011;3833;41.764;26.204;2023-02-03T04:45:02;5.07;;;4.67;;
7583;SDS011;3833;41.764;26.204;2023-02-03T04:47:29;4.23;;;3.87;;
7583;SDS011;3833;41.764;26.204;2023-02-03T04:49:56;4.70;;;4.23;;
7583;SDS011;3833;41.764;26.204;2023-02-03T04:52:23;4.50;;;4.20;;
7583;SDS011;3833;41.764;26.204;2023-02-03T04:54:51;4.27;;;3.87;;
7583;SDS011;3833;41.764;26.204;2023-02-03T04:57:18;5.53;;;5.03;;
7583;SDS011;3833;41.764;26.204;2023-02-03T04:59:45;4.53;;;4.23;;
7583;SDS011;3833;41.764;26.204;2023-02-03T05:02:12;5.60;;;5.20;;
7583;SDS011;3833;41.764;26.204;2023-02-03T05:04:38;4.50;;;4.10;;
7583;SDS011;3833;41.764;26.204;2023-02-03T05:07:05;5.80;;;5.40;;
7583;SDS011;3833;41.764;26.204;2023-02-03T05:09:32;5.43;;;4.93;;
7583;SDS011;3833;41.764;26.204;2023-02-03T05:12:00;5.43;;;5.03;;
7583;SDS011;3833;41.764;26.204;2023-02-03T05:14:27;7.30;;;6.83;;
7583;SDS011;3833;41.764;26.204;2023-02-03T05:16:54;8.43;;;7.93;;
7583;SDS011;3833;41.764;26.204;2023-02-03T05:19:20;10.17;;;9.53;;
7583;SDS011;3833;41.764;26.204;2023-02-03T05:21:47;9.77;;;9.17;;
7583;SDS011;3833;41.764;26.204;2023-02-03T05:24:14;14.77;;;13.97;;
7583;SDS011;3833;41.764;26.204;2023-02-03T05:26:41;14.27;;;13.50;;
7583;SDS011;3833;41.764;26.204;2023-02-03T05:29:09;9.20;;;8.50;;
7583;SDS011;3833;41.764;26.204;2023-02-03T05:31:36;7.50;;;7.10;;
7583;SDS011;3833;41.764;26.204;2023-02-03T05:34:03;10.13;;;9.60;;
7583;SDS011;3833;41.764;26.204;2023-02-03T05:36:30;9.57;;;9.07;;
7583;SDS011;3833;41.764;26.204;2023-02-03T05:38:57;8.73;;;8.27;;
7583;SDS011;3833;41.764;26.204;2023-02-03T05:41:24;11.13;;;10.50;;
7583;SDS011;3833;41.764;26.204;2023-02-03T05:44:10;12.93;;;12.27;;
7583;SDS011;3833;41.764;26.204;2023-02-03T05:46:36;6.83;;;6.43;;
7583;SDS011;3833;41.764;26.204;2023-02-03T05:49:03;6.50;;;6.10;;
7583;SDS011;3833;41.764;26.204;2023-02-03T05:51:30;15.77;;;15.10;;
7583;SDS011;3833;41.764;26.204;2023-02-03T05:53:57;10.13;;;9.63;;
7583;SDS011;3833;41.764;26.204;2023-02-03T05:56:24;14.00;;;13.40;;
7583;SDS011;3833;41.764;26.204;2023-02-03T05:58:51;11.23;;;10.73;;
7583;SDS011;3833;41.764;26.204;2023-02-03T06:01:19;11.73;;;10.83;;
7583;SDS011;3833;41.764;26.204;2023-02-03T06:03:46;15.93;;;15.33;;
7583;SDS011;3833;41.764;26.204;2023-02-03T06:06:13;14.93;;;14.33;;
7583;SDS011;3833;41.764;26.204;2023-02-03T06:08:40;9.27;;;8.67;;
7583;SDS011;3833;41.764;26.204;2023-02-03T06:11:08;8.80;;;8.20;;
7583;SDS011;3833;41.764;26.204;2023-02-03T06:13:35;8.97;;;8.50;;
7583;SDS011;3833;41.764;26.204;2023-02-03T06:16:02;9.10;;;8.60;;
7583;SDS011;3833;41.764;26.204;2023-02-03T06:18:30;9.40;;;8.83;;
7583;SDS011;3833;41.764;26.204;2023-02-03T06:20:57;9.77;;;9.17;;
7583;SDS011;3833;41.764;26.204;2023-02-03T06:23:24;18.93;;;18.13;;
7583;SDS011;3833;41.764;26.204;2023-02-03T06:25:51;19.27;;;18.27;;
7583;SDS011;3833;41.764;26.204;2023-02-03T06:28:18;20.70;;;19.77;;
7583;SDS011;3833;41.764;26.204;2023-02-03T06:30:48;21.07;;;20.17;;
7583;SDS011;3833;41.764;26.204;2023-02-03T06:33:15;20.43;;;19.63;;
7583;SDS011;3833;41.764;26.204;2023-02-03T06:35:43;20.33;;;19.60;;
7583;SDS011;3833;41.764;26.204;2023-02-03T06:38:10;20.50;;;19.50;;
7583;SDS011;3833;41.764;26.204;2023-02-03T06:40:37;22.20;;;21.30;;
7583;SDS011;3833;41.764;26.204;2023-02-03T06:43:04;20.73;;;19.87;;
7583;SDS011;3833;41.764;26.204;2023-02-03T06:45:31;22.73;;;21.73;;
7583;SDS011;3833;41.764;26.204;2023-02-03T06:47:58;21.13;;;20.23;;
7583;SDS011;3833;41.764;26.204;2023-02-03T06:50:25;21.13;;;20.33;;
7583;SDS011;3833;41.764;26.204;2023-02-03T06:52:55;22.10;;;21.20;;
7583;SDS011;3833;41.764;26.204;2023-02-03T06:55:21;37.60;;;36.00;;
7583;SDS011;3833;41.764;26.204;2023-02-03T06:57:48;40.70;;;39.00;;
7583;SDS011;3833;41.764;26.204;2023-02-03T07:00:16;37.63;;;36.07;;
7583;SDS011;3833;41.764;26.204;2023-02-03T07:02:43;30.57;;;29.27;;
7583;SDS011;3833;41.764;26.204;2023-02-03T07:05:11;39.50;;;37.90;;
7583;SDS011;3833;41.764;26.204;2023-02-03T07:07:38;38.00;;;36.20;;
7583;SDS011;3833;41.764;26.204;2023-02-03T07:10:06;38.20;;;36.60;;
7583;SDS011;3833;41.764;26.204;2023-02-03T07:12:34;39.20;;;37.50;;
7583;SDS011;3833;41.764;26.204;2023-02-03T07:15:01;39.70;;;38.00;;
7583;SDS011;3833;41.764;26.204;2023-02-03T07:17:28;37.73;;;36.23;;
7583;SDS011;3833;41.764;26.204;2023-02-03T07:19:56;36.37;;;34.67;;
7583;SDS011;3833;41.764;26.204;2023-02-03T07:22:23;37.13;;;35.53;;
7583;SDS011;3833;41.764;26.204;2023-02-03T07:24:49;36.73;;;35.23;;
7583;SDS011;3833;41.764;26.204;2023-02-03T07:27:18;20.07;;;19.07;;
7583;SDS011;3833;41.764;26.204;2023-02-03T07:29:44;18.50;;;17.60;;
7583;SDS011;3833;41.764;26.204;2023-02-03T07:32:11;14.37;;;13.67;;
7583;SDS011;3833;41.764;26.204;2023-02-03T07:34:38;36.40;;;34.60;;
7583;SDS011;3833;41.764;26.204;2023-02-03T07:37:05;30.20;;;28.60;;
7583;SDS011;3833;41.764;26.204;2023-02-03T07:39:32;34.50;;;32.93;;
7583;SDS011;3833;41.764;26.204;2023-02-03T07:41:59;34.47;;;32.97;;
7583;SDS011;3833;41.764;26.204;2023-02-03T07:44:27;37.60;;;36.00;;
7583;SDS011;3833;41.764;26.204;2023-02-03T07:46:54;39.77;;;37.77;;
7583;SDS011;3833;41.764;26.204;2023-02-03T07:49:21;37.77;;;35.77;;
7583;SDS011;3833;41.764;26.204;2023-02-03T07:51:47;30.30;;;28.77;;
7583;SDS011;3833;41.764;26.204;2023-02-03T07:54:14;35.93;;;34.33;;
7583;SDS011;3833;41.764;26.204;2023-02-03T07:56:41;33.37;;;31.77;;
7583;SDS011;3833;41.764;26.204;2023-02-03T07:59:08;32.50;;;31.10;;
7583;SDS011;3833;41.764;26.204;2023-02-03T08:01:36;34.40;;;32.93;;
7583;SDS011;3833;41.764;26.204;2023-02-03T08:04:03;32.40;;;31.10;;
7583;SDS011;3833;41.764;26.204;2023-02-03T08:06:30;35.30;;;33.77;;
7583;SDS011;3833;41.764;26.204;2023-02-03T08:08:57;9.20;;;8.60;;
7583;SDS011;3833;41.764;26.204;2023-02-03T08:11:24;13.67;;;12.87;;
7583;SDS011;3833;41.764;26.204;2023-02-03T08:13:51;16.57;;;15.67;;
7583;SDS011;3833;41.764;26.204;2023-02-03T08:16:17;29.23;;;28.03;;
7583;SDS011;3833;41.764;26.204;2023-02-03T08:18:46;27.93;;;26.60;;
7583;SDS011;3833;41.764;26.204;2023-02-03T08:21:12;36.10;;;34.47;;
7583;SDS011;3833;41.764;26.204;2023-02-03T08:23:39;32.03;;;30.53;;
7583;SDS011;3833;41.764;26.204;2023-02-03T08:26:06;31.10;;;29.80;;
7583;SDS011;3833;41.764;26.204;2023-02-03T08:28:33;30.53;;;29.33;;
7583;SDS011;3833;41.764;26.204;2023-02-03T08:31:00;43.90;;;41.97;;
7583;SDS011;3833;41.764;26.204;2023-02-03T08:33:27;37.93;;;36.13;;
7583;SDS011;3833;41.764;26.204;2023-02-03T08:35:55;44.77;;;42.90;;
7583;SDS011;3833;41.764;26.204;2023-02-03T08:38:24;39.17;;;37.47;;
7583;SDS011;3833;41.764;26.204;2023-02-03T08:40:51;46.00;;;44.10;;
7583;SDS011;3833;41.764;26.204;2023-02-03T08:43:18;35.67;;;34.17;;
7583;SDS011;3833;41.764;26.204;2023-02-03T08:45:45;44.97;;;43.10;;
7583;SDS011;3833;41.764;26.204;2023-02-03T08:48:12;45.93;;;43.93;;
7583;SDS011;3833;41.764;26.204;2023-02-03T08:50:40;33.80;;;32.37;;
7583;SDS011;3833;41.764;26.204;2023-02-03T08:53:10;33.87;;;32.23;;
7583;SDS011;3833;41.764;26.204;2023-02-03T08:55:37;27.57;;;26.30;;
7583;SDS011;3833;41.764;26.204;2023-02-03T08:58:04;34.87;;;33.47;;
7583;SDS011;3833;41.764;26.204;2023-02-03T09:00:31;34.53;;;33.03;;
7583;SDS011;3833;41.764;26.204;2023-02-03T09:02:58;33.23;;;31.93;;
7583;SDS011;3833;41.764;26.204;2023-02-03T09:05:25;33.87;;;32.57;;
7583;SDS011;3833;41.764;26.204;2023-02-03T09:07:52;32.40;;;31.13;;
7583;SDS011;3833;41.764;26.204;2023-02-03T09:10:20;33.30;;;31.90;;
7583;SDS011;3833;41.764;26.204;2023-02-03T09:12:47;26.97;;;25.87;;
7583;SDS011;3833;41.764;26.204;2023-02-03T09:15:14;29.97;;;28.67;;
7583;SDS011;3833;41.764;26.204;2023-02-03T09:17:41;24.20;;;23.03;;
7583;SDS011;3833;41.764;26.204;2023-02-03T09:20:08;25.80;;;24.53;;
7583;SDS011;3833;41.764;26.204;2023-02-03T09:22:37;33.27;;;31.77;;
7583;SDS011;3833;41.764;26.204;2023-02-03T09:25:04;30.77;;;29.53;;
7583;SDS011;3833;41.764;26.204;2023-02-03T09:27:33;29.83;;;28.63;;
7583;SDS011;3833;41.764;26.204;2023-02-03T09:30:00;23.70;;;22.60;;
7583;SDS011;3833;41.764;26.204;2023-02-03T09:32:27;24.83;;;23.93;;
7583;SDS011;3833;41.764;26.204;2023-02-03T09:34:54;30.60;;;29.40;;
7583;SDS011;3833;41.764;26.204;2023-02-03T09:37:21;32.67;;;31.37;;
7583;SDS011;3833;41.764;26.204;2023-02-03T09:39:48;14.20;;;13.60;;
7583;SDS011;3833;41.764;26.204;2023-02-03T09:42:24;15.93;;;15.13;;
7583;SDS011;3833;41.764;26.204;2023-02-03T09:45:07;29.53;;;28.33;;
7583;SDS011;3833;41.764;26.204;2023-02-03T09:47:41;24.77;;;23.77;;
7583;SDS011;3833;41.764;26.204;2023-02-03T09:50:10;26.13;;;25.13;;
7583;SDS011;3833;41.764;26.204;2023-02-03T09:52:40;21.27;;;20.17;;
7583;SDS011;3833;41.764;26.204;2023-02-03T09:55:12;20.53;;;19.63;;
7583;SDS011;3833;41.764;26.204;2023-02-03T09:57:59;11.07;;;10.57;;
7583;SDS011;3833;41.764;26.204;2023-02-03T10:00:31;17.43;;;16.73;;
7583;SDS011;3833;41.764;26.204;2023-02-03T10:03:02;20.40;;;19.53;;
7583;SDS011;3833;41.764;26.204;2023-02-03T10:05:43;34.63;;;33.23;;
7583;SDS011;3833;41.764;26.204;2023-02-03T10:08:22;32.37;;;31.07;;
7583;SDS011;3833;41.764;26.204;2023-02-03T10:10:58;37.50;;;35.90;;
7583;SDS011;3833;41.764;26.204;2023-02-03T10:13:39;35.87;;;34.40;;
7583;SDS011;3833;41.764;26.204;2023-02-03T10:19:07;33.70;;;32.13;;
7583;SDS011;3833;41.764;26.204;2023-02-03T10:21:37;35.03;;;33.43;;
7583;SDS011;3833;41.764;26.204;2023-02-03T10:24:12;36.50;;;34.90;;
7583;SDS011;3833;41.764;26.204;2023-02-03T10:26:45;33.13;;;31.60;;
7583;SDS011;3833;41.764;26.204;2023-02-03T10:29:16;31.37;;;30.17;;
7583;SDS011;3833;41.764;26.204;2023-02-03T10:31:46;35.80;;;34.10;;
7583;SDS011;3833;41.764;26.204;2023-02-03T10:34:14;35.40;;;33.90;;
7583;SDS011;3833;41.764;26.204;2023-02-03T10:36:49;34.17;;;32.80;;
7583;SDS011;3833;41.764;26.204;2023-02-03T10:39:22;34.30;;;32.90;;
7583;SDS011;3833;41.764;26.204;2023-02-03T10:41:55;34.20;;;32.70;;
7583;SDS011;3833;41.764;26.204;2023-02-03T10:44:23;32.40;;;30.80;;
7583;SDS011;3833;41.764;26.204;2023-02-03T10:46:56;31.37;;;29.90;;
7583;SDS011;3833;41.764;26.204;2023-02-03T10:49:24;14.40;;;13.70;;
7583;SDS011;3833;41.764;26.204;2023-02-03T10:51:53;17.03;;;16.33;;
7583;SDS011;3833;41.764;26.204;2023-02-03T10:54:25;37.00;;;35.20;;
7583;SDS011;3833;41.764;26.204;2023-02-03T10:56:54;34.30;;;32.70;;
7583;SDS011;3833;41.764;26.204;2023-02-03T10:59:28;33.17;;;31.67;;
7583;SDS011;3833;41.764;26.204;2023-02-03T11:02:00;35.13;;;33.17;;
7583;SDS011;3833;41.764;26.204;2023-02-03T11:04:34;22.60;;;21.47;;
7583;SDS011;3833;41.764;26.204;2023-02-03T11:07:02;24.87;;;23.40;;
7583;SDS011;3833;41.764;26.204;2023-02-03T11:09:33;16.53;;;15.63;;
7583;SDS011;3833;41.764;26.204;2023-02-03T11:14:36;38.87;;;36.87;;
7583;SDS011;3833;41.764;26.204;2023-02-03T11:17:06;36.10;;;34.40;;
7583;SDS011;3833;41.764;26.204;2023-02-03T11:19:35;38.93;;;36.57;;
7583;SDS011;3833;41.764;26.204;2023-02-03T11:22:04;36.57;;;34.97;;
7583;SDS011;3833;41.764;26.204;2023-02-03T11:24:32;34.50;;;32.97;;
7583;SDS011;3833;41.764;26.204;2023-02-03T11:27:04;34.80;;;33.30;;
7583;SDS011;3833;41.764;26.204;2023-02-03T11:29:35;36.83;;;35.13;;
7583;SDS011;3833;41.764;26.204;2023-02-03T11:32:05;35.47;;;33.97;;
7583;SDS011;3833;41.764;26.204;2023-02-03T11:34:45;37.97;;;36.37;;
7583;SDS011;3833;41.764;26.204;2023-02-03T11:37:26;36.90;;;35.40;;
7583;SDS011;3833;41.764;26.204;2023-02-03T11:39:55;35.73;;;34.33;;
7583;SDS011;3833;41.764;26.204;2023-02-03T11:42:39;33.10;;;31.50;;
7583;SDS011;3833;41.764;26.204;2023-02-03T11:45:14;32.63;;;31.33;;
7583;SDS011;3833;41.764;26.204;2023-02-03T11:47:52;32.40;;;31.20;;
7583;SDS011;3833;41.764;26.204;2023-02-03T11:50:23;33.77;;;32.37;;
7583;SDS011;3833;41.764;26.204;2023-02-03T11:55:51;17.43;;;16.73;;
7583;SDS011;3833;41.764;26.204;2023-02-03T12:01:57;33.50;;;32.17;;
7583;SDS011;3833;41.764;26.204;2023-02-03T12:04:47;33.13;;;31.73;;
7583;SDS011;3833;41.764;26.204;2023-02-03T12:07:37;35.47;;;34.07;;
7583;SDS011;3833;41.764;26.204;2023-02-03T12:10:17;32.00;;;30.80;;
7583;SDS011;3833;41.764;26.204;2023-02-03T12:12:55;31.77;;;30.50;;
7583;SDS011;3833;41.764;26.204;2023-02-03T12:15:35;34.87;;;33.37;;
7583;SDS011;3833;41.764;26.204;2023-02-03T12:18:24;32.33;;;31.00;;
7583;SDS011;3833;41.764;26.204;2023-02-03T12:21:04;28.40;;;27.17;;
7583;SDS011;3833;41.764;26.204;2023-02-03T12:23:42;34.30;;;32.90;;
7583;SDS011;3833;41.764;26.204;2023-02-03T12:26:19;29.70;;;28.40;;
7583;SDS011;3833;41.764;26.204;2023-02-03T12:28:51;20.33;;;19.43;;
7583;SDS011;3833;41.764;26.204;2023-02-03T12:31:24;21.50;;;20.70;;
7583;SDS011;3833;41.764;26.204;2023-02-03T12:33:58;20.07;;;19.17;;
7583;SDS011;3833;41.764;26.204;2023-02-03T12:36:37;22.00;;;21.10;;
7583;SDS011;3833;41.764;26.204;2023-02-03T12:39:09;22.40;;;21.40;;
7583;SDS011;3833;41.764;26.204;2023-02-03T12:41:41;27.57;;;26.37;;
7583;SDS011;3833;41.764;26.204;2023-02-03T12:44:14;23.93;;;22.93;;
7583;SDS011;3833;41.764;26.204;2023-02-03T12:46:46;26.60;;;25.60;;
7583;SDS011;3833;41.764;26.204;2023-02-03T12:49:21;27.17;;;26.13;;
7583;SDS011;3833;41.764;26.204;2023-02-03T12:51:59;29.87;;;28.50;;
7583;SDS011;3833;41.764;26.204;2023-02-03T12:54:33;27.37;;;26.37;;
7583;SDS011;3833;41.764;26.204;2023-02-03T12:57:11;29.60;;;28.50;;
7583;SDS011;3833;41.764;26.204;2023-02-03T12:59:49;26.50;;;25.40;;
7583;SDS011;3833;41.764;26.204;2023-02-03T13:02:25;27.73;;;26.63;;
7583;SDS011;3833;41.764;26.204;2023-02-03T13:04:55;27.13;;;26.03;;
7583;SDS011;3833;41.764;26.204;2023-02-03T13:07:29;25.33;;;24.33;;
7583;SDS011;3833;41.764;26.204;2023-02-03T13:10:02;24.27;;;23.37;;
7583;SDS011;3833;41.764;26.204;2023-02-03T13:12:32;28.60;;;27.40;;
7583;SDS011;3833;41.764;26.204;2023-02-03T13:15:10;26.83;;;25.83;;
7583;SDS011;3833;41.764;26.204;2023-02-03T13:17:48;28.83;;;27.63;;
7583;SDS011;3833;41.764;26.204;2023-02-03T13:20:20;23.40;;;22.50;;
7583;SDS011;3833;41.764;26.204;2023-02-03T13:22:51;14.37;;;13.67;;
7583;SDS011;3833;41.764;26.204;2023-02-03T13:25:19;14.37;;;13.73;;
7583;SDS011;3833;41.764;26.204;2023-02-03T13:27:51;26.07;;;25.07;;
7583;SDS011;3833;41.764;26.204;2023-02-03T13:30:36;27.20;;;26.13;;
7583;SDS011;3833;41.764;26.204;2023-02-03T13:36:22;31.53;;;30.23;;
7583;SDS011;3833;41.764;26.204;2023-02-03T13:42:10;34.90;;;33.60;;
7583;SDS011;3833;41.764;26.204;2023-02-03T13:44:45;34.60;;;33.30;;
7583;SDS011;3833;41.764;26.204;2023-02-03T13:47:16;35.53;;;34.03;;
7583;SDS011;3833;41.764;26.204;2023-02-03T13:49:48;35.87;;;34.47;;
7583;SDS011;3833;41.764;26.204;2023-02-03T13:52:22;35.33;;;33.73;;
7583;SDS011;3833;41.764;26.204;2023-02-03T13:54:52;35.83;;;34.43;;
7583;SDS011;3833;41.764;26.204;2023-02-03T13:57:20;34.73;;;33.43;;
7583;SDS011;3833;41.764;26.204;2023-02-03T13:59:51;44.17;;;42.17;;
7583;SDS011;3833;41.764;26.204;2023-02-03T14:11:39;14.67;;;14.07;;
7583;SDS011;3833;41.764;26.204;2023-02-03T14:23:58;19.67;;;18.87;;
7583;SDS011;3833;41.764;26.204;2023-02-03T14:26:32;17.90;;;17.20;;
7583;SDS011;3833;41.764;26.204;2023-02-03T14:29:04;19.07;;;18.13;;
7583;SDS011;3833;41.764;26.204;2023-02-03T14:31:40;34.00;;;32.50;;
7583;SDS011;3833;41.764;26.204;2023-02-03T14:34:19;27.87;;;26.77;;
7583;SDS011;3833;41.764;26.204;2023-02-03T14:36:55;25.70;;;24.70;;
7583;SDS011;3833;41.764;26.204;2023-02-03T14:42:47;37.43;;;34.57;;
7583;SDS011;3833;41.764;26.204;2023-02-03T14:45:35;30.23;;;28.53;;
7583;SDS011;3833;41.764;26.204;2023-02-03T14:48:26;56.27;;;49.47;;
7583;SDS011;3833;41.764;26.204;2023-02-03T14:51:04;32.87;;;30.87;;
7583;SDS011;3833;41.764;26.204;2023-02-03T14:53:47;39.07;;;36.87;;
7583;SDS011;3833;41.764;26.204;2023-02-03T14:56:29;28.17;;;26.87;;
7583;SDS011;3833;41.764;26.204;2023-02-03T14:59:18;24.70;;;23.13;;
7583;SDS011;3833;41.764;26.204;2023-02-03T15:02:11;29.57;;;28.17;;
7583;SDS011;3833;41.764;26.204;2023-02-03T15:04:44;32.13;;;30.43;;
7583;SDS011;3833;41.764;26.204;2023-02-03T15:10:14;21.33;;;20.43;;
7583;SDS011;3833;41.764;26.204;2023-02-03T15:12:43;27.03;;;26.03;;
7583;SDS011;3833;41.764;26.204;2023-02-03T15:15:21;25.27;;;24.27;;
7583;SDS011;3833;41.764;26.204;2023-02-03T15:17:51;29.63;;;28.43;;
7583;SDS011;3833;41.764;26.204;2023-02-03T15:20:34;15.37;;;14.57;;
7583;SDS011;3833;41.764;26.204;2023-02-03T15:23:16;13.10;;;12.50;;
7583;SDS011;3833;41.764;26.204;2023-02-03T15:25:45;22.27;;;21.40;;
7583;SDS011;3833;41.764;26.204;2023-02-03T15:28:18;23.50;;;22.60;;
7583;SDS011;3833;41.764;26.204;2023-02-03T15:30:47;27.20;;;26.20;;
7583;SDS011;3833;41.764;26.204;2023-02-03T15:33:19;24.17;;;23.27;;
7583;SDS011;3833;41.764;26.204;2023-02-03T15:35:47;24.60;;;23.70;;
7583;SDS011;3833;41.764;26.204;2023-02-03T15:38:18;23.97;;;22.97;;
7583;SDS011;3833;41.764;26.204;2023-02-03T15:40:51;26.77;;;25.67;;
7583;SDS011;3833;41.764;26.204;2023-02-03T15:43:23;26.93;;;25.83;;
7583;SDS011;3833;41.764;26.204;2023-02-03T15:45:58;25.30;;;24.20;;
7583;SDS011;3833;41.764;26.204;2023-02-03T15:48:32;24.77;;;23.73;;
7583;SDS011;3833;41.764;26.204;2023-02-03T15:51:04;21.80;;;20.90;;